M I D A S
Marine Information and Data Acquisition System
Tripno 2152 of the Zeeleeuw from 2011-07-27 05:25:13 to 2011-07-27 15:18:30
Back to CruiseResearch ActivitiesStationsMapUnderway DataData graphs

EquipmentUnitsComment
TimeDGPSUTC
LatitudeDGPSDM.mWGS84
LongitudeDGPSDM.mWGS84
HeadingGyrodeg 
SOGDGPSknotsSpeed over ground
COGDGPSdegCourse over ground
DepthEcho soundermeters200 kHz
Missing or incorrect values are displayed as -999
Navigation data collected by the RV Zeeleeuw from 2011-07-27 05:26:57 to 2011-07-27 16:27:51
                                                                                    Next 1000 lines
Time Latitude Longitude Heading SOG COG Depth
2011-07-27 05:27:07 51°13.634 2°56.013 106.8 1.4 282 7.1
2011-07-27 05:27:13 51°13.634 2°56.008 106.7 1.9 279 7.5
2011-07-27 05:27:17 51°13.635 2°56.004 106.6 2.5 286 7.7
2011-07-27 05:27:23 51°13.636 2°55.996 107.5 3.2 285 -999
2011-07-27 05:27:29 51°13.638 2°55.987 109 3.6 290 -999
2011-07-27 05:27:34 51°13.64 2°55.979 109.8 4 289 -999
2011-07-27 05:27:40 51°13.642 2°55.968 110.4 4.2 289 -999
2011-07-27 05:27:45 51°13.644 2°55.959 110.4 4.4 289 -999
2011-07-27 05:27:51 51°13.646 2°55.947 110.4 4.4 289 -999
2011-07-27 05:27:56 51°13.648 2°55.938 110.3 4.4 288 -999
2011-07-27 05:28:01 51°13.65 2°55.929 110.4 4.4 288 -999
2011-07-27 05:28:06 51°13.652 2°55.92 111 4.4 289 -999
2011-07-27 05:28:11 51°13.654 2°55.91 111.9 4.5 289 -999
2011-07-27 05:28:16 51°13.656 2°55.901 113.3 4.5 290 -999
2011-07-27 05:28:21 51°13.659 2°55.892 114.6 4.6 291 -999
2011-07-27 05:28:26 51°13.661 2°55.882 116.2 4.6 293 -999
2011-07-27 05:28:31 51°13.664 2°55.873 118 4.7 294 -999
2011-07-27 05:28:36 51°13.667 2°55.864 120 4.7 296 -999
2011-07-27 05:28:42 51°13.671 2°55.853 121.3 4.7 297 -999
2011-07-27 05:28:46 51°13.673 2°55.845 123 4.7 299 -999
2011-07-27 05:28:51 51°13.676 2°55.836 124.4 4.7 301 -999
2011-07-27 05:28:56 51°13.68 2°55.827 126.4 4.8 304 -999
2011-07-27 05:29:01 51°13.684 2°55.819 128.4 4.7 305 -999
2011-07-27 05:29:06 51°13.688 2°55.811 129.8 4.7 306 -999
2011-07-27 05:29:11 51°13.692 2°55.803 130.7 4.7 308 -999
2011-07-27 05:29:16 51°13.696 2°55.794 132 4.7 309 -999
2011-07-27 05:29:21 51°13.7 2°55.787 133.2 4.7 310 -999
2011-07-27 05:29:26 51°13.704 2°55.779 134 4.7 311 -999
2011-07-27 05:29:31 51°13.709 2°55.771 134.7 4.7 313 -999
2011-07-27 05:29:36 51°13.713 2°55.763 135.3 4.8 313 -999
2011-07-27 05:29:41 51°13.718 2°55.756 136.2 4.8 314 -999
2011-07-27 05:29:46 51°13.723 2°55.748 137 4.9 315 -999
2011-07-27 05:29:51 51°13.728 2°55.74 137.6 4.9 316 -999
2011-07-27 05:29:56 51°13.733 2°55.733 138.6 5 317 -999
2011-07-27 05:30:01 51°13.738 2°55.726 139.3 5 318 -999
2011-07-27 05:30:06 51°13.743 2°55.718 140.2 5 318 -999
2011-07-27 05:30:11 51°13.749 2°55.711 141.3 5.1 320 -999
2011-07-27 05:30:16 51°13.754 2°55.704 142.4 5.1 320 -999
2011-07-27 05:30:21 51°13.76 2°55.697 143.5 5.1 322 -999
2011-07-27 05:30:26 51°13.766 2°55.69 144.8 5.1 322 -999
2011-07-27 05:30:31 51°13.771 2°55.683 146.2 5.1 324 -999
2011-07-27 05:30:36 51°13.777 2°55.677 147.8 5.2 325 -999
2011-07-27 05:30:42 51°13.785 2°55.669 149.5 5.2 327 -999
2011-07-27 05:30:47 51°13.791 2°55.663 151.3 5.2 329 -999
2011-07-27 05:30:51 51°13.796 2°55.659 152.9 5.2 330 -999
2011-07-27 05:30:57 51°13.803 2°55.652 155.4 5.2 332 -999
2011-07-27 05:31:02 51°13.81 2°55.647 157.4 5.2 334 -999
2011-07-27 05:31:06 51°13.815 2°55.644 159.6 5.2 337 -999
2011-07-27 05:31:11 51°13.822 2°55.64 161.9 5.2 340 -999
2011-07-27 05:31:16 51°13.829 2°55.636 163.7 5.3 342 -999
2011-07-27 05:31:21 51°13.836 2°55.633 166.5 5.4 345 -999
2011-07-27 05:31:26 51°13.843 2°55.63 168.9 5.4 347 -999
2011-07-27 05:31:31 51°13.851 2°55.628 171.1 5.4 349 -999
2011-07-27 05:31:36 51°13.858 2°55.626 172.8 5.5 351 -999
2011-07-27 05:31:41 51°13.866 2°55.625 175.5 5.5 354 -999
2011-07-27 05:31:46 51°13.873 2°55.624 177.8 5.4 356 -999
2011-07-27 05:31:51 51°13.881 2°55.623 180.1 5.4 357 -999
2011-07-27 05:31:56 51°13.888 2°55.623 181.6 5.2 -999 -999
2011-07-27 05:32:00 51°13.894 2°55.623 184.1 5.1 2 -999
2011-07-27 05:32:07 51°13.903 2°55.624 186.1 4.9 3 -999
2011-07-27 05:32:12 51°13.91 2°55.626 188.1 4.8 5 -999
2011-07-27 05:32:16 51°13.915 2°55.626 189.6 4.7 7 -999
2011-07-27 05:32:22 51°13.922 2°55.629 191.5 4.6 10 -999
2011-07-27 05:32:27 51°13.928 2°55.631 193.2 4.5 11 -999
2011-07-27 05:32:32 51°13.934 2°55.633 195.2 4.5 13 -999
2011-07-27 05:32:36 51°13.939 2°55.635 196.8 4.2 15 -999
2011-07-27 05:32:41 51°13.944 2°55.638 197.9 4 17 -999
2011-07-27 05:32:46 51°13.949 2°55.64 199.2 3.7 17 -999
2011-07-27 05:32:51 51°13.954 2°55.643 200.4 3.4 20 -999
2011-07-27 05:32:56 51°13.957 2°55.645 201.6 3.1 21 4.8
2011-07-27 05:33:01 51°13.961 2°55.647 202.6 2.5 23 11.6
2011-07-27 05:33:06 51°13.963 2°55.649 203.6 1.7 22 -999
2011-07-27 05:33:11 51°13.965 2°55.65 204.9 1.1 31 -999
2011-07-27 05:33:16 51°13.965 2°55.651 207.4 0.8 24 11.8
2011-07-27 05:33:21 51°13.966 2°55.651 211.1 0.4 41 11.6
2011-07-27 05:33:26 51°13.966 2°55.652 214.8 0.1 348 11.6
2011-07-27 05:33:31 51°13.966 2°55.651 218.3 0.2 227 -999
2011-07-27 05:33:36 51°13.966 2°55.65 222.1 0.4 234 11.6
2011-07-27 05:33:41 51°13.965 2°55.649 226.1 0.7 236 11.7
2011-07-27 05:33:46 51°13.964 2°55.647 230.7 1.5 241 11.6
2011-07-27 05:33:51 51°13.963 2°55.642 235.5 2.3 244 11.6
2011-07-27 05:33:56 51°13.962 2°55.636 242.5 2.7 255 -999
2011-07-27 05:34:00 51°13.961 2°55.631 251.2 3 258 -999
2011-07-27 05:34:06 51°13.961 2°55.623 261.6 3.1 270 11.6
2011-07-27 05:34:11 51°13.961 2°55.616 267.9 3.2 271 -999
2011-07-27 05:34:16 51°13.962 2°55.609 273.6 3.3 283 11.6
2011-07-27 05:34:21 51°13.963 2°55.602 280.2 3.4 285 11.5
2011-07-27 05:34:26 51°13.965 2°55.595 286.5 3.5 295 11.3
2011-07-27 05:34:31 51°13.968 2°55.587 292.9 3.6 298 11.2
2011-07-27 05:34:36 51°13.971 2°55.581 299.5 3.9 304 11.6
2011-07-27 05:34:41 51°13.975 2°55.573 305.9 4.3 310 11.6
2011-07-27 05:34:45 51°13.978 2°55.567 311.3 4.9 313 11.2
2011-07-27 05:34:50 51°13.984 2°55.559 315.5 5.4 319 10.9
2011-07-27 05:34:55 51°13.99 2°55.55 319.8 5.9 321 11.5
2011-07-27 05:35:00 51°13.997 2°55.542 323.4 6.4 325 11.2
2011-07-27 05:35:05 51°14.005 2°55.534 326.7 6.8 328 11.3
2011-07-27 05:35:09 51°14.012 2°55.527 328.9 7.3 327 11.3
2011-07-27 05:35:15 51°14.023 2°55.517 329.4 7.8 329 11.5
2011-07-27 05:35:20 51°14.033 2°55.508 330.4 8.1 329 11.7
2011-07-27 05:35:25 51°14.043 2°55.498 330.9 8.4 328 11.3
2011-07-27 05:35:29 51°14.051 2°55.49 330.8 8.6 329 11.4
2011-07-27 05:35:35 51°14.064 2°55.478 331 8.8 329 11.4
2011-07-27 05:35:40 51°14.075 2°55.468 331.3 9.1 329 11.5
2011-07-27 05:35:45 51°14.086 2°55.458 331.7 9.3 330 -999
2011-07-27 05:35:49 51°14.095 2°55.449 332.6 9.5 331 11.4
2011-07-27 05:35:54 51°14.107 2°55.439 333 9.7 330 11.4
2011-07-27 05:36:00 51°14.121 2°55.427 333 9.8 332 11.4
2011-07-27 05:36:05 51°14.133 2°55.416 333.4 9.9 331 11.4
2011-07-27 05:36:09 51°14.143 2°55.408 333.8 10 332 11.4
2011-07-27 05:36:14 51°14.156 2°55.397 333.8 10.2 331 11.4
2011-07-27 05:36:19 51°14.168 2°55.386 333.1 10.3 331 -999
2011-07-27 05:36:24 51°14.181 2°55.375 333.2 10.4 331 11.4
2011-07-27 05:36:29 51°14.194 2°55.364 333.5 10.4 330 11.4
2011-07-27 05:36:34 51°14.207 2°55.352 332.5 10.5 329 -999
2011-07-27 05:36:39 51°14.219 2°55.34 331.6 10.6 330 11.4
2011-07-27 05:36:44 51°14.231 2°55.328 331.7 10.5 329 11.3
2011-07-27 05:36:49 51°14.244 2°55.316 331.8 10.6 329 11.4
2011-07-27 05:36:53 51°14.254 2°55.306 330.6 10.7 328 11.2
2011-07-27 05:36:58 51°14.267 2°55.294 330.2 10.6 329 11.3
2011-07-27 05:37:03 51°14.279 2°55.282 331.1 10.6 329 11.2
2011-07-27 05:37:09 51°14.294 2°55.267 331.1 10.7 328 11
2011-07-27 05:37:13 51°14.304 2°55.257 330.3 10.7 328 11.1
2011-07-27 05:37:18 51°14.317 2°55.245 330.3 10.8 329 11.3
2011-07-27 05:37:23 51°14.33 2°55.232 329.8 10.9 327 11.3
2011-07-27 05:37:28 51°14.343 2°55.22 330.4 10.8 330 11.1
2011-07-27 05:37:33 51°14.355 2°55.207 331 11 329 11.3
2011-07-27 05:37:37 51°14.366 2°55.197 331.2 11 329 11.2
2011-07-27 05:37:43 51°14.382 2°55.181 331 11.1 329 10.9
2011-07-27 05:37:48 51°14.396 2°55.169 331.8 11.3 330 11.3
2011-07-27 05:37:53 51°14.409 2°55.155 331.8 11.4 328 11.3
2011-07-27 05:37:58 51°14.422 2°55.142 330.5 11.5 328 11.3
2011-07-27 05:38:03 51°14.436 2°55.128 329 11.5 325 11.2
2011-07-27 05:38:07 51°14.446 2°55.117 328.9 11.5 327 11
2011-07-27 05:38:13 51°14.462 2°55.099 327.6 11.6 324 11.1
2011-07-27 05:38:17 51°14.472 2°55.088 327 11.5 326 11.4
2011-07-27 05:38:23 51°14.489 2°55.07 327.1 11.7 325 11.4
2011-07-27 05:38:28 51°14.502 2°55.056 327.7 11.8 326 11.3
2011-07-27 05:38:33 51°14.515 2°55.04 327.3 11.8 323 11.7
2011-07-27 05:38:37 51°14.526 2°55.027 327 12 323 11.5
2011-07-27 05:38:43 51°14.541 2°55.007 326.4 12.1 320 11.5
2011-07-27 05:38:48 51°14.553 2°54.989 324.4 12.1 318 11.6
2011-07-27 05:38:53 51°14.566 2°54.971 324.5 12.1 320 11.4
2011-07-27 05:38:57 51°14.577 2°54.957 325.5 12.2 320 11.6
2011-07-27 05:39:03 51°14.592 2°54.936 325.9 12.2 320 11.9
2011-07-27 05:39:08 51°14.605 2°54.919 326 12.2 320 11.6
2011-07-27 05:39:13 51°14.619 2°54.903 326.8 12.3 322 11.7
2011-07-27 05:39:17 51°14.63 2°54.889 327.8 12.4 322 12.2
2011-07-27 05:39:23 51°14.646 2°54.869 327.8 12.3 322 12.2
2011-07-27 05:39:28 51°14.659 2°54.852 327.7 12.3 323 11.4
2011-07-27 05:39:33 51°14.673 2°54.836 328.2 12.3 323 11.7
2011-07-27 05:39:37 51°14.684 2°54.822 328.1 12.2 322 11.6
2011-07-27 05:39:42 51°14.697 2°54.806 327.6 12.2 322 12
2011-07-27 05:39:47 51°14.711 2°54.789 328.3 12.2 323 11.7
2011-07-27 05:39:53 51°14.727 2°54.77 328.6 12.3 322 12
2011-07-27 05:39:57 51°14.738 2°54.757 328.4 12.2 323 11.4
2011-07-27 05:40:03 51°14.754 2°54.737 328.5 12.3 323 11.5
2011-07-27 05:40:08 51°14.768 2°54.72 327.9 12.3 322 11.7
2011-07-27 05:40:13 51°14.781 2°54.704 327.6 12.3 323 11.7
2011-07-27 05:40:18 51°14.795 2°54.687 327.8 12.2 323 -999
2011-07-27 05:40:23 51°14.808 2°54.671 327.8 12.3 323 11.8
2011-07-27 05:40:28 51°14.822 2°54.656 328.9 12.3 326 -999
2011-07-27 05:40:33 51°14.836 2°54.64 330.1 12.3 324 -999
2011-07-27 05:40:38 51°14.85 2°54.624 329.9 12.2 324 11.8
2011-07-27 05:40:44 51°14.866 2°54.605 329 12.3 323 11.8
2011-07-27 05:40:49 51°14.88 2°54.589 328.9 12.2 324 11.9
2011-07-27 05:40:53 51°14.891 2°54.576 328.9 12.2 323 11.6
2011-07-27 05:40:58 51°14.904 2°54.56 328.3 12.2 323 11.8
2011-07-27 05:41:03 51°14.918 2°54.544 328 12.2 323 11.9
2011-07-27 05:41:08 51°14.931 2°54.527 327.9 12.2 323 11.7
2011-07-27 05:41:13 51°14.945 2°54.511 327.9 12.3 323 12.4
2011-07-27 05:41:17 51°14.956 2°54.498 328.4 12.2 323 11.7
2011-07-27 05:41:22 51°14.969 2°54.482 328.4 12.2 322 12
2011-07-27 05:41:28 51°14.985 2°54.462 327.7 12.2 322 12
2011-07-27 05:41:33 51°14.999 2°54.446 327.5 12.2 322 12.2
2011-07-27 05:41:37 51°15.009 2°54.432 326.8 12.1 321 11.9
2011-07-27 05:41:42 51°15.022 2°54.416 326.7 12.1 321 12
2011-07-27 05:41:48 51°15.038 2°54.395 326.5 12.2 321 11.8
2011-07-27 05:41:53 51°15.052 2°54.378 326 12.3 321 11.6
2011-07-27 05:41:57 51°15.062 2°54.364 325.3 12.3 320 11.6
2011-07-27 05:42:02 51°15.074 2°54.346 324.2 12.2 318 12.1
2011-07-27 05:42:08 51°15.089 2°54.324 323.5 12.2 318 11.8
2011-07-27 05:42:13 51°15.102 2°54.306 322.6 12.2 317 12
2011-07-27 05:42:17 51°15.112 2°54.291 322.3 12.2 317 12.1
2011-07-27 05:42:23 51°15.127 2°54.27 323.2 12.2 320 12
2011-07-27 05:42:28 51°15.14 2°54.253 324.3 12.2 320 12.1
2011-07-27 05:42:33 51°15.153 2°54.237 325.3 12.2 321 11.9
2011-07-27 05:42:37 51°15.164 2°54.223 326 12.1 320 12.1
2011-07-27 05:42:42 51°15.177 2°54.206 326 12.1 321 11.9
2011-07-27 05:42:48 51°15.193 2°54.185 326.3 12.1 321 12.3
2011-07-27 05:42:53 51°15.206 2°54.169 326.4 12.1 321 12.1
2011-07-27 05:42:57 51°15.217 2°54.155 326.8 12.2 322 12.2
2011-07-27 05:43:03 51°15.233 2°54.135 327.4 12.2 322 12.1
2011-07-27 05:43:08 51°15.246 2°54.119 327.4 12.1 322 12.1
2011-07-27 05:43:13 51°15.259 2°54.102 327.2 12.1 321 12.1
2011-07-27 05:43:17 51°15.27 2°54.089 327.4 12.1 323 12
2011-07-27 05:43:23 51°15.286 2°54.07 328.1 12.1 324 11.8
2011-07-27 05:43:28 51°15.3 2°54.054 328.7 12.1 324 11.9
2011-07-27 05:43:33 51°15.313 2°54.039 329.2 12.2 324 12.4
2011-07-27 05:43:37 51°15.324 2°54.026 328.9 12.2 323 12.4
2011-07-27 05:43:42 51°15.337 2°54.009 328.1 12.3 322 12.4
2011-07-27 05:43:48 51°15.353 2°53.989 327.3 12.2 322 12.3
2011-07-27 05:43:53 51°15.366 2°53.972 327 12.2 321 12
2011-07-27 05:43:57 51°15.377 2°53.958 326.3 12.2 320 12
2011-07-27 05:44:02 51°15.39 2°53.94 325.6 12.3 319 12.4
2011-07-27 05:44:08 51°15.405 2°53.919 324.9 12.2 320 12.1
2011-07-27 05:44:13 51°15.418 2°53.902 324.2 12.3 319 12.2
2011-07-27 05:44:17 51°15.428 2°53.888 324.1 12.2 320 12
2011-07-27 05:44:23 51°15.444 2°53.867 324.5 12.2 319 12.3
2011-07-27 05:44:27 51°15.454 2°53.853 324.6 12.2 319 12.7
2011-07-27 05:44:33 51°15.469 2°53.832 324.5 12.2 319 12
2011-07-27 05:44:37 51°15.48 2°53.817 324.6 12.2 320 12
2011-07-27 05:44:43 51°15.495 2°53.797 325.1 12.2 320 12.1
2011-07-27 05:44:47 51°15.506 2°53.783 325.6 12.2 322 12.2
2011-07-27 05:44:53 51°15.522 2°53.763 326.6 12.2 322 12.5
2011-07-27 05:44:57 51°15.533 2°53.75 327.4 12.2 323 12.8
2011-07-27 05:45:03 51°15.549 2°53.731 327.8 12.2 323 12.2
2011-07-27 05:45:08 51°15.563 2°53.715 328.4 12.2 324 12.5
2011-07-27 05:45:13 51°15.576 2°53.699 329.4 12.2 325 12.1
2011-07-27 05:45:17 51°15.588 2°53.687 330.2 12.1 326 12.1
2011-07-27 05:45:23 51°15.604 2°53.669 330.8 12.2 325 12.5
2011-07-27 05:45:28 51°15.619 2°53.654 331 12.2 326 12.3
2011-07-27 05:45:33 51°15.633 2°53.639 331.2 12.2 326 12.5
2011-07-27 05:45:37 51°15.644 2°53.627 331.3 12.2 327 12.4
2011-07-27 05:45:42 51°15.658 2°53.612 331.6 12.2 326 12.4
2011-07-27 05:45:48 51°15.674 2°53.594 331.5 12.2 325 12.4
2011-07-27 05:45:53 51°15.688 2°53.578 330.9 12.1 324 12.2
2011-07-27 05:45:57 51°15.699 2°53.565 329.5 12.2 324 12.3
2011-07-27 05:46:03 51°15.715 2°53.547 329.9 12.1 326 12.8
2011-07-27 05:46:08 51°15.729 2°53.532 330.7 12.1 325 12.8
2011-07-27 05:46:13 51°15.743 2°53.517 331.3 12 327 12.4
2011-07-27 05:46:17 51°15.755 2°53.506 331.9 12 328 12.5
2011-07-27 05:46:23 51°15.772 2°53.492 334.8 11.8 334 12.4
2011-07-27 05:46:28 51°15.787 2°53.481 338.1 11.9 334 12.6
2011-07-27 05:46:33 51°15.802 2°53.47 340.2 11.9 337 12.8
2011-07-27 05:46:37 51°15.815 2°53.462 341.8 11.9 338 12.3
2011-07-27 05:46:42 51°15.83 2°53.453 343.4 11.8 340 12.6
2011-07-27 05:46:48 51°15.849 2°53.442 344.8 11.9 341 12.5
2011-07-27 05:46:53 51°15.864 2°53.434 346.1 11.9 341 12.6
2011-07-27 05:46:57 51°15.877 2°53.427 346.3 11.8 340 12.8
2011-07-27 05:47:03 51°15.896 2°53.416 345.8 12 339 12.9
2011-07-27 05:47:08 51°15.911 2°53.406 344.2 12 337 12.7
2011-07-27 05:47:13 51°15.926 2°53.396 342.9 11.9 337 12.8
2011-07-27 05:47:17 51°15.938 2°53.387 341.9 11.9 335 11.8
2011-07-27 05:47:22 51°15.953 2°53.376 341.2 11.9 335 11.9
2011-07-27 05:47:27 51°15.969 2°53.365 340.8 12.1 335 12.3
2011-07-27 05:47:33 51°15.987 2°53.351 340.1 12 334 12.1
2011-07-27 05:47:37 51°15.999 2°53.342 339.6 12 334 11.8
2011-07-27 05:47:42 51°16.013 2°53.33 339.1 12 333 12.1
2011-07-27 05:47:48 51°16.031 2°53.315 338.3 11.9 332 12.1
2011-07-27 05:47:53 51°16.046 2°53.301 337.5 12.1 331 12.1
2011-07-27 05:47:57 51°16.057 2°53.291 337.1 12.1 331 11.9
2011-07-27 05:48:03 51°16.074 2°53.274 336.6 12.1 330 12
2011-07-27 05:48:08 51°16.089 2°53.261 336.6 12.1 330 12.1
2011-07-27 05:48:13 51°16.104 2°53.249 337.1 12.1 332 12.2
2011-07-27 05:48:17 51°16.116 2°53.239 337.8 12 333 12
2011-07-27 05:48:22 51°16.131 2°53.227 338.9 12 334 12.1
2011-07-27 05:48:28 51°16.149 2°53.214 340.1 12 336 12.3
2011-07-27 05:48:33 51°16.164 2°53.203 341 11.9 336 12.1
2011-07-27 05:48:37 51°16.176 2°53.194 341.4 11.9 337 12.3
2011-07-27 05:48:42 51°16.191 2°53.184 342.1 12 336 12.2
2011-07-27 05:48:48 51°16.209 2°53.171 341.5 11.9 336 12.2
2011-07-27 05:48:53 51°16.224 2°53.161 341.2 11.9 336 12.4
2011-07-27 05:48:57 51°16.237 2°53.152 341.2 11.9 335 12.3
2011-07-27 05:49:02 51°16.252 2°53.141 340.9 11.9 336 12.3
2011-07-27 05:49:08 51°16.27 2°53.128 340.8 12 336 12.4
2011-07-27 05:49:13 51°16.285 2°53.117 341 12 336 12.2
2011-07-27 05:49:17 51°16.297 2°53.109 340.8 11.9 336 12
2011-07-27 05:49:22 51°16.312 2°53.098 340.9 11.9 336 12.1
2011-07-27 05:49:28 51°16.33 2°53.085 341.3 12 337 12.4
2011-07-27 05:49:33 51°16.345 2°53.075 341.9 11.8 337 12.4
2011-07-27 05:49:37 51°16.357 2°53.067 341.7 11.6 336 12.1
2011-07-27 05:49:42 51°16.372 2°53.056 341.1 11.7 335 12.7
2011-07-27 05:49:48 51°16.389 2°53.043 340.6 11.7 335 12.4
2011-07-27 05:49:53 51°16.405 2°53.032 340.3 11.8 335 12.2
2011-07-27 05:49:57 51°16.417 2°53.023 340.2 11.9 335 12.3
2011-07-27 05:50:02 51°16.432 2°53.012 339.6 11.9 334 12.2
2011-07-27 05:50:08 51°16.449 2°52.997 338.8 11.9 333 12.2
2011-07-27 05:50:13 51°16.464 2°52.984 337.8 11.9 332 12
2011-07-27 05:50:17 51°16.476 2°52.974 336.8 12 331 12.3
2011-07-27 05:50:23 51°16.493 2°52.958 335.9 12 331 12.3
2011-07-27 05:50:28 51°16.507 2°52.945 335.6 11.9 331 12
2011-07-27 05:50:33 51°16.522 2°52.932 335.4 12 330 12.1
2011-07-27 05:50:37 51°16.533 2°52.921 335.2 12 330 12.1
2011-07-27 05:50:42 51°16.548 2°52.908 334.9 12.1 331 12.2
2011-07-27 05:50:48 51°16.565 2°52.893 335 12 331 12.1
2011-07-27 05:50:53 51°16.58 2°52.88 335.2 12 331 12.1
2011-07-27 05:50:57 51°16.591 2°52.869 335.4 12.1 331 12.1
2011-07-27 05:51:02 51°16.606 2°52.857 335.7 11.9 331 11.7
2011-07-27 05:51:08 51°16.623 2°52.841 335.7 11.9 331 11.8
2011-07-27 05:51:13 51°16.638 2°52.828 335.6 12 331 11.6
2011-07-27 05:51:17 51°16.649 2°52.818 335.4 12 331 11.5
2011-07-27 05:51:23 51°16.667 2°52.802 335.4 11.9 331 11.6
2011-07-27 05:51:28 51°16.681 2°52.79 335.8 11.9 331 11.3
2011-07-27 05:51:33 51°16.696 2°52.777 336.2 11.9 332 11.5
2011-07-27 05:51:37 51°16.707 2°52.768 337.4 11.8 333 10.7
2011-07-27 05:51:42 51°16.722 2°52.757 338.3 11.7 335 10.7
2011-07-27 05:51:48 51°16.74 2°52.744 339.7 11.7 336 10.5
2011-07-27 05:51:53 51°16.755 2°52.734 341 11.7 337 10.3
2011-07-27 05:51:57 51°16.767 2°52.726 341.8 11.6 338 10.3
2011-07-27 05:52:03 51°16.785 2°52.715 342.4 11.7 338 10.1
2011-07-27 05:52:08 51°16.801 2°52.706 342.7 11.7 338 10
2011-07-27 05:52:13 51°16.816 2°52.696 342.9 11.7 338 10.1
2011-07-27 05:52:17 51°16.828 2°52.688 343.1 11.7 338 10
2011-07-27 05:52:22 51°16.843 2°52.679 342.4 11.7 337 9.8
2011-07-27 05:52:28 51°16.86 2°52.666 342 11.7 337 10.1
2011-07-27 05:52:33 51°16.875 2°52.656 341.7 11.8 337 10
2011-07-27 05:52:37 51°16.887 2°52.647 341.8 11.8 337 10
2011-07-27 05:52:42 51°16.902 2°52.637 342 11.7 336 10
2011-07-27 05:52:48 51°16.92 2°52.624 341.2 11.7 334 10.3
2011-07-27 05:52:53 51°16.934 2°52.613 340.3 11.7 335 10
2011-07-27 05:52:57 51°16.946 2°52.603 339.8 11.8 335 10.4
2011-07-27 05:53:02 51°16.961 2°52.592 340 11.7 334 10.3
2011-07-27 05:53:08 51°16.978 2°52.578 339.8 11.8 333 10.2
2011-07-27 05:53:13 51°16.993 2°52.566 338.7 11.8 332 10.1
2011-07-27 05:53:17 51°17.004 2°52.556 337.6 11.7 332 10
2011-07-27 05:53:22 51°17.018 2°52.544 337.3 11.6 332 10.1
2011-07-27 05:53:28 51°17.035 2°52.529 336.8 11.6 331 10
2011-07-27 05:53:33 51°17.049 2°52.516 336.6 11.6 331 10.1
2011-07-27 05:53:37 51°17.06 2°52.506 336.4 11.6 331 10.2
2011-07-27 05:53:42 51°17.074 2°52.494 336.9 11.6 331 10.1
2011-07-27 05:53:48 51°17.091 2°52.479 336.8 11.6 331 10
2011-07-27 05:53:53 51°17.105 2°52.467 336.5 11.7 331 10.4
2011-07-27 05:53:57 51°17.117 2°52.457 336.3 11.7 331 10.2
2011-07-27 05:54:02 51°17.131 2°52.445 337.1 11.6 333 10.6
2011-07-27 05:54:08 51°17.149 2°52.431 338.2 11.6 334 10.5
2011-07-27 05:54:13 51°17.163 2°52.42 339.1 11.6 335 10.7
2011-07-27 05:54:17 51°17.175 2°52.411 339.5 11.6 334 10.7
2011-07-27 05:54:23 51°17.193 2°52.398 339.9 11.7 335 10.6
2011-07-27 05:54:28 51°17.208 2°52.389 340.9 11.8 337 10.7
2011-07-27 05:54:33 51°17.223 2°52.378 341.7 11.7 337 10.7
2011-07-27 05:54:37 51°17.235 2°52.37 342.2 11.6 337 10.7
2011-07-27 05:54:42 51°17.25 2°52.36 342.3 11.6 337 10.8
2011-07-27 05:54:48 51°17.268 2°52.349 342.5 11.7 338 10.8
2011-07-27 05:54:53 51°17.283 2°52.339 342.7 11.6 337 10.8
2011-07-27 05:54:57 51°17.295 2°52.33 342 11.7 335 10.8
2011-07-27 05:55:02 51°17.309 2°52.319 341.1 11.6 334 10.8
2011-07-27 05:55:08 51°17.327 2°52.305 339.9 11.7 334 10.9
2011-07-27 05:55:13 51°17.341 2°52.294 339.2 11.8 333 10.9
2011-07-27 05:55:17 51°17.353 2°52.284 338.6 11.7 333 11.4
2011-07-27 05:55:23 51°17.371 2°52.27 338.5 11.8 333 10.9
2011-07-27 05:55:28 51°17.385 2°52.259 338.3 11.7 334 11.3
2011-07-27 05:55:33 51°17.4 2°52.247 338.8 11.7 334 11.6
2011-07-27 05:55:37 51°17.412 2°52.238 339 11.8 334 11.8
2011-07-27 05:55:42 51°17.427 2°52.227 339.4 11.9 334 11.7
2011-07-27 05:55:48 51°17.444 2°52.214 339.4 11.7 334 11.4
2011-07-27 05:55:53 51°17.458 2°52.202 339 11.7 333 11.6
2011-07-27 05:55:57 51°17.47 2°52.192 338.1 11.8 332 11.7
2011-07-27 05:56:03 51°17.488 2°52.177 337.1 11.9 332 11.9
2011-07-27 05:56:08 51°17.502 2°52.164 336.9 11.8 332 11.8
2011-07-27 05:56:13 51°17.517 2°52.152 336.7 11.9 332 11.9
2011-07-27 05:56:17 51°17.528 2°52.143 336.9 11.9 333 11.8
2011-07-27 05:56:22 51°17.543 2°52.131 337.6 11.8 333 11.6
2011-07-27 05:56:28 51°17.56 2°52.117 338.4 11.7 334 11.5
2011-07-27 05:56:33 51°17.575 2°52.106 339.1 11.8 335 11.6
2011-07-27 05:56:37 51°17.587 2°52.098 339.8 11.9 336 11.9
2011-07-27 05:56:42 51°17.602 2°52.087 340.7 11.8 336 11.6
2011-07-27 05:56:48 51°17.62 2°52.074 341.1 11.8 336 11.8
2011-07-27 05:56:53 51°17.634 2°52.064 341.2 11.8 336 11.6
2011-07-27 05:56:57 51°17.646 2°52.055 341.6 11.6 337 11.6
2011-07-27 05:57:02 51°17.661 2°52.045 341.9 11.7 336 11.4
2011-07-27 05:57:08 51°17.679 2°52.032 341.9 11.8 336 11.3
2011-07-27 05:57:13 51°17.694 2°52.022 341.7 11.7 336 11
2011-07-27 05:57:17 51°17.706 2°52.013 341.3 11.7 335 11.2
2011-07-27 05:57:22 51°17.72 2°52.002 340.3 11.7 334 10.9
2011-07-27 05:57:28 51°17.738 2°51.988 339.1 11.7 333 10.9
2011-07-27 05:57:33 51°17.752 2°51.976 338 11.7 332 10.8
2011-07-27 05:57:37 51°17.763 2°51.966 337.5 11.6 332 11
2011-07-27 05:57:42 51°17.778 2°51.953 336.8 11.7 329 10.8
2011-07-27 05:57:48 51°17.794 2°51.937 335.4 11.8 328 10.9
2011-07-27 05:57:53 51°17.808 2°51.923 334 11.6 327 10.4
2011-07-27 05:57:57 51°17.819 2°51.912 332.6 11.7 326 10.7
2011-07-27 05:58:02 51°17.832 2°51.896 331.6 11.8 325 10.8
2011-07-27 05:58:08 51°17.847 2°51.878 330.7 11.7 324 10.9
2011-07-27 05:58:13 51°17.86 2°51.861 330 11.8 322 10.8
2011-07-27 05:58:17 51°17.871 2°51.848 327.7 11.9 320 10.7
2011-07-27 05:58:23 51°17.886 2°51.828 326.2 11.9 319 10.5
2011-07-27 05:58:28 51°17.898 2°51.809 324.1 11.9 316 10.9
2011-07-27 05:58:33 51°17.909 2°51.791 323.1 11.8 316 11
2011-07-27 05:58:37 51°17.918 2°51.776 320.6 12 313 10.7
2011-07-27 05:58:42 51°17.93 2°51.756 319.1 11.9 312 11.4
2011-07-27 05:58:48 51°17.942 2°51.732 317.9 12 310 11.1
2011-07-27 05:58:53 51°17.953 2°51.711 316.5 12 310 10.8
2011-07-27 05:58:57 51°17.961 2°51.695 315.1 12 309 10.6
2011-07-27 05:59:03 51°17.973 2°51.67 314.1 12 308 11.1
2011-07-27 05:59:08 51°17.984 2°51.649 314.3 12 310 11.2
2011-07-27 05:59:13 51°17.995 2°51.629 316.2 12.1 311 11.1
2011-07-27 05:59:17 51°18.003 2°51.612 316.8 12.1 311 11
2011-07-27 05:59:22 51°18.015 2°51.593 317.3 12.1 312 11.4
2011-07-27 05:59:27 51°18.027 2°51.573 318.4 12.1 313 11.3
2011-07-27 05:59:33 51°18.04 2°51.549 318.7 12.1 314 11.4
2011-07-27 05:59:37 51°18.05 2°51.534 319.7 12 315 11.3
2011-07-27 05:59:42 51°18.062 2°51.515 320.1 12.1 314 11.9
2011-07-27 05:59:48 51°18.076 2°51.492 320.2 12.1 315 11.7
2011-07-27 05:59:53 51°18.088 2°51.473 320.6 12.1 315 11.8
2011-07-27 05:59:57 51°18.097 2°51.458 320.6 12.2 315 11.9
2011-07-27 06:00:03 51°18.111 2°51.435 319.9 12.2 313 11.9
2011-07-27 06:00:08 51°18.123 2°51.415 319.4 12.2 314 11.9
2011-07-27 06:00:13 51°18.135 2°51.396 319.2 12.2 313 12.2
2011-07-27 06:00:17 51°18.144 2°51.38 319.1 12.2 314 12.3
2011-07-27 06:00:22 51°18.156 2°51.361 319.8 12.2 315 12.3
2011-07-27 06:00:28 51°18.171 2°51.338 320.7 12.2 316 12.5
2011-07-27 06:00:33 51°18.183 2°51.32 321.7 12.2 317 12.5
2011-07-27 06:00:37 51°18.193 2°51.306 323 12 318 12.7
2011-07-27 06:00:42 51°18.205 2°51.288 323.8 12 318 12.5
2011-07-27 06:00:48 51°18.22 2°51.267 323.9 12 319 12.9
2011-07-27 06:00:53 51°18.233 2°51.249 324.5 12 319 12.9
2011-07-27 06:00:57 51°18.243 2°51.235 324.7 12.1 319 13.2
2011-07-27 06:01:02 51°18.256 2°51.218 324.8 12.2 319 13.2
2011-07-27 06:01:08 51°18.272 2°51.196 324.7 12.1 319 13
2011-07-27 06:01:13 51°18.284 2°51.179 324.8 12.1 319 12.9
2011-07-27 06:01:17 51°18.294 2°51.164 324.5 12.1 319 13.1
2011-07-27 06:01:22 51°18.307 2°51.147 324.6 12.1 319 13.6
2011-07-27 06:01:28 51°18.322 2°51.125 324.6 12.1 318 13.7
2011-07-27 06:01:33 51°18.335 2°51.108 324.5 12.1 318 13.6
2011-07-27 06:01:37 51°18.345 2°51.093 323.7 12.1 317 13.6
2011-07-27 06:01:42 51°18.357 2°51.074 323.1 12.1 316 13.8
2011-07-27 06:01:48 51°18.372 2°51.052 322.2 12.1 316 13.5
2011-07-27 06:01:53 51°18.384 2°51.033 321.6 12.1 315 13.9
2011-07-27 06:01:57 51°18.393 2°51.018 321.1 12.1 315 14
2011-07-27 06:02:02 51°18.405 2°50.999 321 12.2 315 14.3
2011-07-27 06:02:07 51°18.417 2°50.979 320.9 12.2 314 14.1
2011-07-27 06:02:13 51°18.431 2°50.956 320.2 12.2 314 14.2
2011-07-27 06:02:17 51°18.441 2°50.941 319.9 12.2 314 14.4
2011-07-27 06:02:22 51°18.452 2°50.921 319.6 12.1 313 14.1
2011-07-27 06:02:27 51°18.464 2°50.902 319.5 12.2 313 14.4
2011-07-27 06:02:33 51°18.478 2°50.878 319.7 12.2 313 14.6
2011-07-27 06:02:37 51°18.487 2°50.863 320 12.1 314 14.4
2011-07-27 06:02:43 51°18.502 2°50.84 320.2 12.2 315 14.5
2011-07-27 06:02:47 51°18.511 2°50.825 321.1 12.2 316 14.6
2011-07-27 06:02:53 51°18.526 2°50.802 321.7 12 315 14.2
2011-07-27 06:02:57 51°18.535 2°50.787 321.6 12 315 14.5
2011-07-27 06:03:03 51°18.55 2°50.765 321.6 12.1 316 14.8
2011-07-27 06:03:07 51°18.559 2°50.75 322.1 12.1 316 14.8
2011-07-27 06:03:13 51°18.574 2°50.728 322.7 12 317 14.1
2011-07-27 06:03:17 51°18.584 2°50.713 322.8 12 317 14.7
2011-07-27 06:03:23 51°18.599 2°50.692 323.1 12.1 317 15
2011-07-27 06:03:27 51°18.609 2°50.677 323.5 12 318 14.7
2011-07-27 06:03:33 51°18.624 2°50.656 324.2 12 318 14.8
2011-07-27 06:03:37 51°18.634 2°50.642 324.2 12 318 15.3
2011-07-27 06:03:43 51°18.649 2°50.62 324.2 12 318 14.9
2011-07-27 06:03:48 51°18.661 2°50.603 324.3 12 318 14.6
2011-07-27 06:03:53 51°18.674 2°50.585 324.2 12 318 14.8
2011-07-27 06:03:57 51°18.684 2°50.57 324 12.1 317 15.2
2011-07-27 06:04:03 51°18.698 2°50.548 323.5 12.1 318 14.9
2011-07-27 06:04:08 51°18.711 2°50.53 323.4 12.1 317 14.9
2011-07-27 06:04:13 51°18.723 2°50.511 323 12.1 316 15.2
2011-07-27 06:04:17 51°18.732 2°50.497 322.4 12.1 316 14.9
2011-07-27 06:04:23 51°18.747 2°50.474 322.3 12.1 316 14.7
2011-07-27 06:04:27 51°18.757 2°50.459 322.1 12.2 316 14.8
2011-07-27 06:04:33 51°18.771 2°50.437 321.9 12.2 316 14.8
2011-07-27 06:04:37 51°18.781 2°50.422 322 12.2 315 15.1
2011-07-27 06:04:42 51°18.793 2°50.402 321.6 12.2 314 14.8
2011-07-27 06:04:48 51°18.807 2°50.379 320.9 12.1 314 14.8
2011-07-27 06:04:53 51°18.819 2°50.36 320.6 12.2 314 14.7
2011-07-27 06:04:57 51°18.828 2°50.344 320.5 12.1 314 14.6
2011-07-27 06:05:02 51°18.84 2°50.325 320.2 12.2 313 14.7
2011-07-27 06:05:08 51°18.853 2°50.301 319.7 12.1 312 14.4
2011-07-27 06:05:13 51°18.864 2°50.281 319.4 12.1 312 14.9
2011-07-27 06:05:17 51°18.874 2°50.266 319.4 12 314 14.2
2011-07-27 06:05:22 51°18.885 2°50.247 320.2 12 315 13.8
2011-07-27 06:05:28 51°18.9 2°50.225 321.1 12 315 13.7
2011-07-27 06:05:33 51°18.912 2°50.206 321.5 12 316 14
2011-07-27 06:05:37 51°18.921 2°50.191 321.7 12.1 316 13.9
2011-07-27 06:05:43 51°18.936 2°50.169 321.6 12 316 13.4
2011-07-27 06:05:47 51°18.946 2°50.154 322.2 12 316 13.3
2011-07-27 06:05:53 51°18.96 2°50.133 322.5 12.1 317 13.2
2011-07-27 06:05:57 51°18.97 2°50.118 323 12.1 318 13.5
2011-07-27 06:06:03 51°18.986 2°50.097 323.6 12 318 13.3
2011-07-27 06:06:08 51°18.998 2°50.079 324 12 319 13
2011-07-27 06:06:13 51°19.011 2°50.062 324.2 12 319 12.9
2011-07-27 06:06:17 51°19.021 2°50.048 324.5 12 319 12.9
2011-07-27 06:06:23 51°19.036 2°50.027 324.7 12 319 12.4
2011-07-27 06:06:28 51°19.049 2°50.009 324.8 12.1 319 12
2011-07-27 06:06:33 51°19.062 2°49.992 324.5 12.1 320 12.2
2011-07-27 06:06:37 51°19.072 2°49.978 324.9 12.1 320 12.2
2011-07-27 06:06:42 51°19.085 2°49.961 324.9 12.1 319 12.1
2011-07-27 06:06:48 51°19.1 2°49.94 324.5 12 319 11.9
2011-07-27 06:06:53 51°19.112 2°49.922 324.2 12.1 319 11.5
2011-07-27 06:06:57 51°19.123 2°49.907 323.9 12.1 318 11.4
2011-07-27 06:07:03 51°19.137 2°49.886 323.7 12 317 11.4
2011-07-27 06:07:08 51°19.15 2°49.868 323 12.1 317 11.6
2011-07-27 06:07:13 51°19.161 2°49.848 321.5 12.1 314 11.5
2011-07-27 06:07:17 51°19.17 2°49.833 319.7 12.1 313 11.6
2011-07-27 06:07:22 51°19.182 2°49.813 318 12.1 311 11.4
2011-07-27 06:07:28 51°19.196 2°49.789 316.9 12.1 311 12
2011-07-27 06:07:33 51°19.207 2°49.768 316.3 12.1 311 12.5
2011-07-27 06:07:37 51°19.215 2°49.752 315.6 12.1 310 12.6
2011-07-27 06:07:42 51°19.226 2°49.731 315.8 12.2 311 12.9
2011-07-27 06:07:48 51°19.239 2°49.706 316.4 12.2 311 12.9
2011-07-27 06:07:53 51°19.251 2°49.686 316.5 12.2 311 12.8
2011-07-27 06:07:57 51°19.26 2°49.67 316.5 12.2 311 12.9
2011-07-27 06:08:03 51°19.273 2°49.645 316.4 12.2 311 12.6
2011-07-27 06:08:08 51°19.284 2°49.624 315.8 12.2 310 12.7
2011-07-27 06:08:13 51°19.295 2°49.604 316.1 12.1 311 12.9
2011-07-27 06:08:17 51°19.303 2°49.588 316.4 12 310 13
2011-07-27 06:08:23 51°19.316 2°49.564 315.9 12 310 14.1
2011-07-27 06:08:27 51°19.325 2°49.548 316.3 12.1 311 14.1
2011-07-27 06:08:33 51°19.339 2°49.523 316.7 12.1 311 14.2
2011-07-27 06:08:37 51°19.347 2°49.507 317.1 12.3 311 14.8
2011-07-27 06:08:42 51°19.359 2°49.486 317.3 12 311 14.2
2011-07-27 06:08:48 51°19.371 2°49.463 317.3 11.9 311 14.3
2011-07-27 06:08:53 51°19.383 2°49.443 317.2 12 312 14.9
2011-07-27 06:08:57 51°19.392 2°49.427 317.4 12.1 312 14.8
2011-07-27 06:09:02 51°19.403 2°49.407 317.8 12.1 313 14.7
2011-07-27 06:09:07 51°19.414 2°49.387 318 12.2 312 15
2011-07-27 06:09:13 51°19.428 2°49.363 318.5 12.2 313 15.2
2011-07-27 06:09:17 51°19.438 2°49.348 319.1 12.2 313 15.2
2011-07-27 06:09:23 51°19.451 2°49.324 319.2 12.3 313 15.4
2011-07-27 06:09:27 51°19.461 2°49.308 319.3 12.3 313 15.3
2011-07-27 06:09:33 51°19.474 2°49.284 319 12.2 313 14.8
2011-07-27 06:09:37 51°19.484 2°49.268 319 12.2 312 15.3
2011-07-27 06:09:43 51°19.497 2°49.244 319.1 12.3 312 15.5
2011-07-27 06:09:47 51°19.506 2°49.228 318.8 12.3 312 15.3
2011-07-27 06:09:53 51°19.52 2°49.203 318.8 12.3 312 15.7
2011-07-27 06:09:57 51°19.529 2°49.187 318.7 12.4 312 16.2
2011-07-27 06:10:03 51°19.543 2°49.162 318.5 12.4 311 16.6
2011-07-27 06:10:08 51°19.554 2°49.142 318.7 12.4 311 17
2011-07-27 06:10:13 51°19.566 2°49.121 318 12.4 311 17.4
2011-07-27 06:10:17 51°19.575 2°49.105 318.1 12.4 311 17.6
2011-07-27 06:10:21 51°19.584 2°49.088 318.3 12.3 311 17.3
2011-07-27 06:10:28 51°19.599 2°49.059 318.6 12.4 311 17.9
2011-07-27 06:10:33 51°19.611 2°49.038 318.3 12.4 310 18.2
2011-07-27 06:10:37 51°19.62 2°49.022 318 12.5 311 18.2
2011-07-27 06:10:43 51°19.633 2°48.996 317.9 12.4 310 18
2011-07-27 06:10:48 51°19.644 2°48.975 317.8 12.4 311 18.1
2011-07-27 06:10:53 51°19.656 2°48.955 318.1 12.3 311 18.2
2011-07-27 06:10:57 51°19.665 2°48.938 318.7 12.4 312 18.6
2011-07-27 06:11:03 51°19.678 2°48.914 319 12.3 311 18.5
2011-07-27 06:11:08 51°19.689 2°48.893 318.6 12.4 311 19
2011-07-27 06:11:13 51°19.701 2°48.872 318.7 12.5 311 19.4
2011-07-27 06:11:17 51°19.709 2°48.855 318.4 12.3 310 18.9
2011-07-27 06:11:22 51°19.72 2°48.834 318 12.3 310 19.5
2011-07-27 06:11:28 51°19.734 2°48.809 317.5 12.4 310 20
2011-07-27 06:11:33 51°19.745 2°48.788 317.5 12.4 310 19.8
2011-07-27 06:11:37 51°19.754 2°48.77 317.3 12.4 310 20.3
2011-07-27 06:11:42 51°19.765 2°48.749 317.3 12.4 310 20.5
2011-07-27 06:11:48 51°19.779 2°48.723 317.5 12.5 310 20.7
2011-07-27 06:11:53 51°19.791 2°48.703 317.4 12.5 311 21
2011-07-27 06:11:57 51°19.8 2°48.686 317.7 12.5 310 20.9
2011-07-27 06:12:02 51°19.811 2°48.665 317.7 12.4 311 21.4
2011-07-27 06:12:07 51°19.822 2°48.644 317.9 12.4 310 21.6
2011-07-27 06:12:13 51°19.836 2°48.619 317.9 12.4 311 21.7
2011-07-27 06:12:17 51°19.845 2°48.602 318 12.4 311 21.8
2011-07-27 06:12:22 51°19.856 2°48.582 318.2 12.5 311 22.2
2011-07-27 06:12:28 51°19.869 2°48.557 318.4 12.4 311 21.9
2011-07-27 06:12:33 51°19.881 2°48.536 318.8 12.4 311 22.6
2011-07-27 06:12:37 51°19.89 2°48.52 318.7 12.4 311 22.8
2011-07-27 06:12:42 51°19.902 2°48.499 319.1 12.4 312 22.5
2011-07-27 06:12:48 51°19.915 2°48.475 319.2 12.4 312 22.4
2011-07-27 06:12:53 51°19.927 2°48.454 318.9 12.4 312 23.1
2011-07-27 06:12:57 51°19.936 2°48.438 319.2 12.4 312 22.9
2011-07-27 06:13:02 51°19.947 2°48.417 319 12.4 312 22.7
2011-07-27 06:13:07 51°19.959 2°48.397 319.4 12.3 312 22.5
2011-07-27 06:13:13 51°19.974 2°48.373 319.7 12.3 312 22.6
2011-07-27 06:13:17 51°19.983 2°48.357 319.7 12.3 313 22.7
2011-07-27 06:13:22 51°19.996 2°48.337 320 12.3 314 22.7
2011-07-27 06:13:27 51°20.007 2°48.317 320.2 12.4 313 22.6
2011-07-27 06:13:33 51°20.021 2°48.293 320 12.4 313 22.8
2011-07-27 06:13:37 51°20.03 2°48.277 320.1 12.4 313 22.7
2011-07-27 06:13:42 51°20.042 2°48.257 320.4 12.4 314 22.5
2011-07-27 06:13:47 51°20.053 2°48.237 320.4 12.4 313 22.8
2011-07-27 06:13:53 51°20.067 2°48.213 320 12.3 312 22.8
2011-07-27 06:13:57 51°20.076 2°48.197 319.4 12.3 312 23.1
2011-07-27 06:14:03 51°20.09 2°48.172 319.4 12.3 313 22.8
2011-07-27 06:14:07 51°20.098 2°48.156 319.3 12.4 312 22.9
2011-07-27 06:14:13 51°20.112 2°48.132 319.4 12.2 312 22.6
2011-07-27 06:14:17 51°20.121 2°48.115 319.1 12.3 311 23
2011-07-27 06:14:23 51°20.134 2°48.091 319 12.3 311 22.8
2011-07-27 06:14:27 51°20.143 2°48.074 318 12.3 311 22.4
2011-07-27 06:14:33 51°20.156 2°48.05 317.8 12.2 309 22.5
2011-07-27 06:14:37 51°20.165 2°48.033 316.8 12.2 309 22.6
2011-07-27 06:14:43 51°20.177 2°48.007 316.7 12.2 309 22.6
2011-07-27 06:14:48 51°20.188 2°47.987 316.6 12.1 308 22.6
2011-07-27 06:14:53 51°20.199 2°47.966 316.2 12.2 309 22.6
2011-07-27 06:14:57 51°20.207 2°47.949 315.8 12.1 309 21.8
2011-07-27 06:15:01 51°20.216 2°47.932 315.8 12.2 309 22.4
2011-07-27 06:15:08 51°20.23 2°47.902 315.7 12.2 309 22.3
2011-07-27 06:15:13 51°20.241 2°47.881 315.8 12.3 309 22.5
2011-07-27 06:15:17 51°20.25 2°47.864 316 12.4 309 22.1
2011-07-27 06:15:23 51°20.263 2°47.839 316.4 12.4 310 21.9
2011-07-27 06:15:28 51°20.274 2°47.819 317.1 12.4 311 21.9
2011-07-27 06:15:33 51°20.285 2°47.798 317.6 12.4 311 21.8
2011-07-27 06:15:37 51°20.294 2°47.781 317.9 12.3 311 21.2
2011-07-27 06:15:42 51°20.305 2°47.761 318.4 12.2 311 21.7
2011-07-27 06:15:48 51°20.319 2°47.737 319.4 12.3 313 20.9
2011-07-27 06:15:53 51°20.331 2°47.717 319.9 12.3 313 21.5
2011-07-27 06:15:57 51°20.34 2°47.701 320.4 12.3 313 21
2011-07-27 06:16:02 51°20.352 2°47.682 320.6 12.3 314 21
2011-07-27 06:16:08 51°20.366 2°47.657 320.4 12.3 313 20.6
2011-07-27 06:16:13 51°20.378 2°47.638 320.2 12.3 313 20.4
2011-07-27 06:16:17 51°20.387 2°47.622 319.7 12.4 312 20
2011-07-27 06:16:22 51°20.398 2°47.601 319.2 12.3 311 20.3
2011-07-27 06:16:28 51°20.411 2°47.577 319.1 12.2 311 19.7
2011-07-27 06:16:33 51°20.422 2°47.556 318.7 12.2 311 19.5
2011-07-27 06:16:37 51°20.431 2°47.539 318 12.2 311 19.8
2011-07-27 06:16:43 51°20.444 2°47.514 317.9 12.3 310 19.1
2011-07-27 06:16:47 51°20.453 2°47.498 317.9 12.3 310 18.4
2011-07-27 06:16:53 51°20.466 2°47.472 317.6 12.3 309 18.8
2011-07-27 06:16:57 51°20.474 2°47.455 317.1 12.3 310 19.2
2011-07-27 06:17:03 51°20.487 2°47.43 317.2 12.4 309 18.6
2011-07-27 06:17:08 51°20.498 2°47.409 317.1 12.3 310 16.8
2011-07-27 06:17:13 51°20.509 2°47.388 316.7 12.4 309 18.2
2011-07-27 06:17:17 51°20.518 2°47.371 316.8 12.3 310 18.9
2011-07-27 06:17:22 51°20.529 2°47.35 316.6 12.4 309 18.8
2011-07-27 06:17:28 51°20.541 2°47.324 316.5 12.4 309 16.6
2011-07-27 06:17:33 51°20.552 2°47.303 316.2 12.4 309 17.4
2011-07-27 06:17:37 51°20.56 2°47.285 316.2 12.4 309 18.2
2011-07-27 06:17:42 51°20.571 2°47.264 316.6 12.4 309 18.3
2011-07-27 06:17:47 51°20.582 2°47.243 316.3 12.3 308 18
2011-07-27 06:17:53 51°20.595 2°47.217 316.5 12.4 309 18
2011-07-27 06:17:57 51°20.604 2°47.201 317.1 12.3 310 17.3
2011-07-27 06:18:02 51°20.615 2°47.18 317.6 12.3 311 17.6
2011-07-27 06:18:07 51°20.627 2°47.16 318.2 12.3 311 17.9
2011-07-27 06:18:13 51°20.64 2°47.135 318.9 12.3 312 18.9
2011-07-27 06:18:17 51°20.649 2°47.119 319.4 12.4 313 19.6
2011-07-27 06:18:23 51°20.663 2°47.095 319.7 12.4 313 19.9
2011-07-27 06:18:27 51°20.673 2°47.079 319.8 12.5 313 19.8
2011-07-27 06:18:33 51°20.687 2°47.054 320 12.4 313 18.3
2011-07-27 06:18:37 51°20.696 2°47.039 320.7 12.4 313 17.8
2011-07-27 06:18:43 51°20.71 2°47.014 320.9 12.4 313 17.4
2011-07-27 06:18:47 51°20.719 2°46.998 320.8 12.4 314 18.5
2011-07-27 06:18:53 51°20.734 2°46.974 320.9 12.5 313 20
2011-07-27 06:18:57 51°20.743 2°46.958 320.8 12.4 313 20.1
2011-07-27 06:19:03 51°20.757 2°46.934 320.3 12.3 313 20.8
2011-07-27 06:19:07 51°20.766 2°46.918 320 12.3 313 20.7
2011-07-27 06:19:13 51°20.78 2°46.894 319.7 12.4 313 20.7
2011-07-27 06:19:17 51°20.789 2°46.877 319.4 12.5 312 20.1
2011-07-27 06:19:23 51°20.803 2°46.852 318.5 12.5 311 20.2
2011-07-27 06:19:28 51°20.814 2°46.831 317.8 12.5 310 20.3
2011-07-27 06:19:33 51°20.825 2°46.809 316.9 12.6 309 20.7
2011-07-27 06:19:37 51°20.834 2°46.792 316.2 12.5 309 20.8
2011-07-27 06:19:43 51°20.846 2°46.766 315.7 12.5 307 21.3
2011-07-27 06:19:48 51°20.857 2°46.744 314.7 12.6 307 22.4
2011-07-27 06:19:53 51°20.867 2°46.722 313.8 12.6 307 22.8
2011-07-27 06:19:57 51°20.875 2°46.703 313.2 12.6 305 23.3
2011-07-27 06:20:03 51°20.888 2°46.676 312.5 12.7 305 23.8
2011-07-27 06:20:08 51°20.897 2°46.652 311.9 12.7 304 23.1
2011-07-27 06:20:13 51°20.907 2°46.629 310.7 12.7 303 22.7
2011-07-27 06:20:17 51°20.915 2°46.61 309.6 12.7 302 23.4
2011-07-27 06:20:23 51°20.926 2°46.581 309.3 12.7 302 23.9
2011-07-27 06:20:28 51°20.935 2°46.558 308.8 12.6 302 23.6
2011-07-27 06:20:33 51°20.944 2°46.534 308.4 12.6 303 23.9
2011-07-27 06:20:37 51°20.952 2°46.515 308.6 12.6 303 24.5
2011-07-27 06:20:42 51°20.961 2°46.492 309.4 12.6 303 24.4
2011-07-27 06:20:48 51°20.973 2°46.464 309.3 12.7 303 23.6
2011-07-27 06:20:53 51°20.983 2°46.441 310.4 12.6 305 22.8
2011-07-27 06:20:57 51°20.991 2°46.422 311.2 12.6 304 23.8
2011-07-27 06:21:02 51°21.001 2°46.4 311.9 12.5 305 23.3
2011-07-27 06:21:08 51°21.013 2°46.373 311.7 12.5 306 23.6
2011-07-27 06:21:13 51°21.023 2°46.35 312.8 12.5 306 24.8
2011-07-27 06:21:17 51°21.031 2°46.332 312.9 12.5 305 25.2
2011-07-27 06:21:23 51°21.044 2°46.305 312.9 12.5 307 25.3
2011-07-27 06:21:28 51°21.055 2°46.283 313.3 12.6 308 25.4
2011-07-27 06:21:33 51°21.065 2°46.261 313.4 12.5 307 25.4
2011-07-27 06:21:37 51°21.074 2°46.244 313.8 12.5 307 25.7
2011-07-27 06:21:43 51°21.086 2°46.217 313.3 12.5 308 25.2
2011-07-27 06:21:47 51°21.094 2°46.199 313.4 12.4 308 25.3
2011-07-27 06:21:53 51°21.107 2°46.173 313.8 12.4 308 25
2011-07-27 06:21:57 51°21.116 2°46.156 314.3 12.4 310 24.7
2011-07-27 06:22:02 51°21.126 2°46.135 314.8 12.4 309 25.1
2011-07-27 06:22:08 51°21.14 2°46.11 315.4 12.4 310 24.7
2011-07-27 06:22:13 51°21.151 2°46.089 316.6 12.3 311 25.7
2011-07-27 06:22:17 51°21.16 2°46.073 317.5 12.3 312 25.9
2011-07-27 06:22:22 51°21.171 2°46.053 318.2 12.2 313 25.6
2011-07-27 06:22:27 51°21.184 2°46.034 319 12.2 314 25.7
2011-07-27 06:22:33 51°21.198 2°46.01 320.2 12.2 315 26.1
2011-07-27 06:22:37 51°21.207 2°45.996 321.2 12.3 316 26.6
2011-07-27 06:22:43 51°21.221 2°45.972 321.7 12.3 315 26.3
2011-07-27 06:22:47 51°21.231 2°45.958 321.5 12.2 317 26.6
2011-07-27 06:22:53 51°21.247 2°45.935 322.2 12.3 316 26.5
2011-07-27 06:22:57 51°21.257 2°45.921 321.9 12.2 317 26.2
2011-07-27 06:23:03 51°21.272 2°45.898 321.9 12.2 314 26.7
2011-07-27 06:23:07 51°21.281 2°45.882 320.9 12.2 315 26.8
2011-07-27 06:23:13 51°21.295 2°45.858 320.6 12.3 314 26.8
2011-07-27 06:23:17 51°21.304 2°45.843 320.4 12.2 315 26.2
2011-07-27 06:23:23 51°21.319 2°45.821 320.7 12.2 316 26.3
2011-07-27 06:23:28 51°21.332 2°45.801 321.2 12.3 316 26.5
2011-07-27 06:23:33 51°21.344 2°45.783 321.5 12.3 316 26.4
2011-07-27 06:23:37 51°21.354 2°45.768 322.3 12.3 316 26.4
2011-07-27 06:23:43 51°21.369 2°45.746 323 12.2 318 26.4
2011-07-27 06:23:48 51°21.382 2°45.728 323.9 12.2 318 26
2011-07-27 06:23:53 51°21.395 2°45.711 324.7 12.2 320 26.3
2011-07-27 06:23:57 51°21.405 2°45.696 325.5 12.2 319 26.3
2011-07-27 06:24:03 51°21.421 2°45.676 326 12.1 321 25.9
2011-07-27 06:24:08 51°21.434 2°45.658 326.5 12.2 320 26.3
2011-07-27 06:24:13 51°21.447 2°45.641 325.8 12.2 320 26.6
2011-07-27 06:24:17 51°21.457 2°45.627 326 12.1 320 25.9
2011-07-27 06:24:23 51°21.472 2°45.606 326 12.1 320 25.9
2011-07-27 06:24:28 51°21.485 2°45.589 326.2 12.1 319 26
2011-07-27 06:24:33 51°21.498 2°45.571 326 12.2 319 25.9
2011-07-27 06:24:37 51°21.508 2°45.557 325.5 12.1 320 25.5
2011-07-27 06:24:42 51°21.521 2°45.54 326 12 320 25.1
2011-07-27 06:24:48 51°21.536 2°45.519 326.1 12.1 320 25.1
2011-07-27 06:24:53 51°21.549 2°45.502 325.8 12.1 319 25.1
2011-07-27 06:24:57 51°21.559 2°45.488 325.4 12.2 319 25
2011-07-27 06:25:02 51°21.572 2°45.47 325.3 12.2 319 25.2
2011-07-27 06:25:08 51°21.588 2°45.449 325.5 12.1 320 24.7
2011-07-27 06:25:13 51°21.601 2°45.432 326.1 12.2 320 24.2
2011-07-27 06:25:17 51°21.612 2°45.418 326.7 12.1 321 24
2011-07-27 06:25:22 51°21.623 2°45.4 326.7 12.3 320 24.3
2011-07-27 06:25:27 51°21.637 2°45.383 326 12.1 319 23.9
2011-07-27 06:25:33 51°21.652 2°45.361 325.2 12.1 318 23.9
2011-07-27 06:25:37 51°21.662 2°45.347 324.4 12.2 317 23.7
2011-07-27 06:25:43 51°21.677 2°45.324 323.7 12.2 317 23.6
2011-07-27 06:25:47 51°21.687 2°45.31 323.2 12.1 317 23.1
2011-07-27 06:25:53 51°21.701 2°45.288 323.1 12 317 23.3
2011-07-27 06:25:57 51°21.711 2°45.273 322.6 12.1 316 23.7
2011-07-27 06:26:03 51°21.725 2°45.251 322.2 12.1 315 23.5
2011-07-27 06:26:07 51°21.735 2°45.236 321.8 12.1 315 23.6
2011-07-27 06:26:13 51°21.749 2°45.213 322.1 12.1 316 22.5
2011-07-27 06:26:17 51°21.759 2°45.198 322.4 12.1 316 22.2
2011-07-27 06:26:22 51°21.771 2°45.179 322 12.1 316 22.2
2011-07-27 06:26:28 51°21.785 2°45.157 322.2 12 316 22.3
2011-07-27 06:26:33 51°21.797 2°45.139 322.3 12.1 316 22.9
2011-07-27 06:26:37 51°21.807 2°45.124 322.6 12.1 317 22.9
2011-07-27 06:26:42 51°21.819 2°45.105 322.6 12.2 316 22.9
2011-07-27 06:26:48 51°21.834 2°45.084 322.6 12.2 317 23.3
2011-07-27 06:26:53 51°21.847 2°45.065 322.9 12.2 317 23.3
2011-07-27 06:26:57 51°21.857 2°45.051 323.7 12.1 319 23.2
2011-07-27 06:27:03 51°21.872 2°45.03 324.1 12.1 318 23.1
2011-07-27 06:27:07 51°21.882 2°45.016 324.8 12.1 319 23.4
2011-07-27 06:27:13 51°21.897 2°44.995 325.1 12.1 319 23.3
2011-07-27 06:27:17 51°21.907 2°44.981 325 12 319 22.9
2011-07-27 06:27:23 51°21.923 2°44.96 325 12 319 23.2
2011-07-27 06:27:28 51°21.935 2°44.943 324.9 12 319 23.5
2011-07-27 06:27:33 51°21.948 2°44.926 325.2 12 320 23.6
2011-07-27 06:27:37 51°21.958 2°44.912 325.4 12 320 23.6
2011-07-27 06:27:43 51°21.974 2°44.892 326 12 321 23.5
2011-07-27 06:27:48 51°21.987 2°44.875 326.2 12.1 321 23.8
2011-07-27 06:27:53 51°22 2°44.858 326.6 12.1 321 23.8
2011-07-27 06:27:57 51°22.01 2°44.844 326.7 12.1 320 23.8
2011-07-27 06:28:03 51°22.026 2°44.823 326 12.1 320 23.7
2011-07-27 06:28:08 51°22.038 2°44.805 325.8 12.1 318 23.8
2011-07-27 06:28:13 51°22.05 2°44.787 324.9 12.1 318 23.8
2011-07-27 06:28:17 51°22.06 2°44.774 324.9 12.1 319 24.1
2011-07-27 06:28:22 51°22.073 2°44.756 325 12.1 318 23.8
2011-07-27 06:28:28 51°22.088 2°44.734 324.6 12.1 319 23.9
2011-07-27 06:28:33 51°22.101 2°44.716 324.7 12 318 24.1
2011-07-27 06:28:37 51°22.11 2°44.702 324 12.1 317 24.6
2011-07-27 06:28:42 51°22.122 2°44.683 323.6 12.1 316 24.3
2011-07-27 06:28:48 51°22.137 2°44.661 322.6 12 316 24.2
2011-07-27 06:28:53 51°22.149 2°44.642 322.5 12.1 315 23
2011-07-27 06:28:57 51°22.158 2°44.627 322.1 12 315 23.8
2011-07-27 06:29:02 51°22.17 2°44.608 321.6 12.1 315 24.6
2011-07-27 06:29:08 51°22.184 2°44.585 321.2 12.1 315 24.7
2011-07-27 06:29:13 51°22.195 2°44.566 320.8 12.1 313 24.3
2011-07-27 06:29:17 51°22.205 2°44.55 319.9 12 314 24.5
2011-07-27 06:29:22 51°22.216 2°44.531 320.2 12.1 314 25.8
2011-07-27 06:29:27 51°22.228 2°44.511 320.5 12.1 314 25.5
2011-07-27 06:29:33 51°22.242 2°44.489 320.5 12.1 315 25.3
2011-07-27 06:29:37 51°22.251 2°44.473 320.9 12.1 315 24.9
2011-07-27 06:29:42 51°22.263 2°44.454 321.1 12 316 24.9
2011-07-27 06:29:47 51°22.275 2°44.436 321.3 12 316 24.9
2011-07-27 06:29:53 51°22.29 2°44.414 322.1 12 316 25.5
2011-07-27 06:29:57 51°22.299 2°44.399 322.2 12 316 25.6
2011-07-27 06:30:03 51°22.314 2°44.377 322.4 12 317 26.1
2011-07-27 06:30:07 51°22.323 2°44.362 322.7 12 316 26.4
2011-07-27 06:30:13 51°22.338 2°44.34 323 12.1 317 26.4
2011-07-27 06:30:17 51°22.348 2°44.326 323 12.1 317 26.2
2011-07-27 06:30:23 51°22.362 2°44.304 322.7 12.1 316 26.7
2011-07-27 06:30:27 51°22.372 2°44.288 322.3 12.1 317 26.6
2011-07-27 06:30:33 51°22.386 2°44.266 322.4 12.1 315 26.4
2011-07-27 06:30:37 51°22.396 2°44.25 321.6 12.2 314 26.6
2011-07-27 06:30:43 51°22.41 2°44.228 321.6 12.1 315 26.7
2011-07-27 06:30:48 51°22.422 2°44.209 320.8 12.1 314 26.7
2011-07-27 06:30:53 51°22.434 2°44.19 321.2 12.1 316 27.1
2011-07-27 06:30:57 51°22.443 2°44.174 321.2 12.3 314 27.1
2011-07-27 06:31:01 51°22.453 2°44.159 321.4 12.2 316 26.7
2011-07-27 06:31:08 51°22.47 2°44.131 321.5 12.2 314 27
2011-07-27 06:31:13 51°22.482 2°44.112 321.4 12.1 316 25.8
2011-07-27 06:31:17 51°22.491 2°44.097 321.9 12.2 313 25.1
2011-07-27 06:31:23 51°22.505 2°44.073 320.9 12.1 314 25.3
2011-07-27 06:31:28 51°22.517 2°44.054 321 12.1 314 25.4
2011-07-27 06:31:33 51°22.528 2°44.034 320.8 12.2 314 26.5
2011-07-27 06:31:37 51°22.538 2°44.019 321.5 12.2 315 26.2
2011-07-27 06:31:42 51°22.55 2°44 321.4 12.2 314 26.2
2011-07-27 06:31:48 51°22.564 2°43.977 322.3 12.2 316 26
2011-07-27 06:31:53 51°22.576 2°43.958 322.5 12 314 25.8
2011-07-27 06:31:57 51°22.585 2°43.944 322 11.7 317 25.3
2011-07-27 06:32:03 51°22.599 2°43.922 322.9 11.7 316 25.8
2011-07-27 06:32:08 51°22.611 2°43.905 323.8 11.5 319 26.2
2011-07-27 06:32:13 51°22.623 2°43.888 324.4 11.5 316 27.1
2011-07-27 06:32:17 51°22.632 2°43.875 324.6 11.2 318 26.6
2011-07-27 06:32:22 51°22.643 2°43.858 324.4 11.1 317 26
2011-07-27 06:32:28 51°22.656 2°43.838 324.9 10.9 318 24.5
2011-07-27 06:32:33 51°22.667 2°43.822 324.7 10.7 316 25.1
2011-07-27 06:32:37 51°22.675 2°43.808 322.9 10.5 314 25.9
2011-07-27 06:32:43 51°22.686 2°43.787 320.2 10.4 310 25.9
2011-07-27 06:32:48 51°22.694 2°43.769 316.9 10.1 306 25.7
2011-07-27 06:32:53 51°22.702 2°43.75 312.5 10 303 26.5
2011-07-27 06:32:57 51°22.708 2°43.735 309.7 10 302 27
2011-07-27 06:33:03 51°22.716 2°43.712 308 10.1 299 27
2011-07-27 06:33:08 51°22.722 2°43.692 306.3 10 298 26.8
2011-07-27 06:33:13 51°22.728 2°43.672 304.4 9.9 295 26.8
2011-07-27 06:33:17 51°22.732 2°43.655 301.7 10 293 27.1
2011-07-27 06:33:22 51°22.736 2°43.634 297.7 9.8 287 26.2
2011-07-27 06:33:27 51°22.739 2°43.614 293.5 9.6 282 25.6
2011-07-27 06:33:33 51°22.741 2°43.588 289.1 9.4 278 24.4
2011-07-27 06:33:37 51°22.742 2°43.572 284.1 9.2 274 25.8
2011-07-27 06:33:42 51°22.743 2°43.552 281.5 9 273 26.1
2011-07-27 06:33:47 51°22.743 2°43.533 279.8 8.5 271 25.3
2011-07-27 06:33:53 51°22.743 2°43.511 278.2 8 271 25.6
2011-07-27 06:33:57 51°22.743 2°43.498 276.6 7.7 268 27
2011-07-27 06:34:03 51°22.742 2°43.478 276.4 7.3 269 26.4
2011-07-27 06:34:07 51°22.742 2°43.466 276.4 7 268 25.5
2011-07-27 06:34:13 51°22.742 2°43.448 277.4 6.7 269 25.5
2011-07-27 06:34:17 51°22.741 2°43.437 278.1 6.5 269 26.3
2011-07-27 06:34:23 51°22.741 2°43.419 279.2 6.4 268 26.6
2011-07-27 06:34:27 51°22.741 2°43.409 280.4 6.2 271 25.7
2011-07-27 06:34:33 51°22.741 2°43.392 281 6 271 24.4
2011-07-27 06:34:37 51°22.742 2°43.382 282.6 5.6 271 26.2
2011-07-27 06:34:43 51°22.742 2°43.368 284.1 5.1 272 26.3
2011-07-27 06:34:47 51°22.741 2°43.361 285.1 4.2 269 26.6
2011-07-27 06:34:53 51°22.741 2°43.351 285.6 3.6 266 27.5
2011-07-27 06:34:57 51°22.741 2°43.346 285.3 3.1 263 28.5
2011-07-27 06:35:03 51°22.74 2°43.339 286 2.6 252 27.8
2011-07-27 06:35:08 51°22.739 2°43.335 286.3 1.9 251 27.7
2011-07-27 06:35:13 51°22.738 2°43.332 287 1.5 239 27.1
2011-07-27 06:35:17 51°22.737 2°43.331 287.4 1.4 219 26.7
2011-07-27 06:35:23 51°22.734 2°43.329 287.9 1.4 200 26.8
2011-07-27 06:35:28 51°22.733 2°43.329 288.8 1.4 184 26.8
2011-07-27 06:35:33 51°22.731 2°43.33 289 1.5 172 26.9
2011-07-27 06:35:37 51°22.729 2°43.331 287.8 1.6 163 26.8
2011-07-27 06:35:43 51°22.726 2°43.332 286.3 1.7 159 -999
2011-07-27 06:35:49 51°22.724 2°43.335 283.4 1.5 151 -999
2011-07-27 06:35:54 51°22.722 2°43.336 280.4 1.5 155 -999
2011-07-27 06:36:00 51°22.72 2°43.337 278.3 1.5 157 -999
2011-07-27 06:36:05 51°22.718 2°43.339 276.3 1.4 157 -999
2011-07-27 06:36:11 51°22.716 2°43.34 274.1 1.6 163 -999
2011-07-27 06:36:16 51°22.714 2°43.341 272.2 1.3 155 -999
2011-07-27 06:36:21 51°22.713 2°43.343 269 1.3 157 -999
2011-07-27 06:36:26 51°22.711 2°43.344 267 1.2 150 -999
2011-07-27 06:36:31 51°22.71 2°43.345 265.5 1.4 154 -999
2011-07-27 06:36:36 51°22.708 2°43.346 264.7 1.3 152 -999
2011-07-27 06:36:41 51°22.706 2°43.347 263.7 1.1 157 -999
2011-07-27 06:36:46 51°22.705 2°43.348 262.8 1.4 160 25.8
2011-07-27 06:36:51 51°22.704 2°43.349 262 1 159 25.8
2011-07-27 06:36:56 51°22.702 2°43.35 260.8 1.1 161 26
2011-07-27 06:37:01 51°22.701 2°43.351 259.8 1.1 158 26.1
2011-07-27 06:37:05 51°22.699 2°43.352 258.4 1.1 158 26.8
2011-07-27 06:37:10 51°22.698 2°43.353 257.1 1.1 160 27.2
2011-07-27 06:37:15 51°22.696 2°43.353 255.6 0.9 158 27.7
2011-07-27 06:37:20 51°22.695 2°43.355 254 1.1 155 27.7
2011-07-27 06:37:25 51°22.694 2°43.356 252.4 1.1 153 27.6
2011-07-27 06:37:29 51°22.693 2°43.357 250.9 1.1 145 27.2
2011-07-27 06:37:34 51°22.692 2°43.359 249.9 1 140 27.2
2011-07-27 06:37:39 51°22.691 2°43.36 249 1 136 27.6
2011-07-27 06:37:44 51°22.689 2°43.362 247.6 1 143 27.5
2011-07-27 06:37:49 51°22.688 2°43.363 246.1 1 146 27.5
2011-07-27 06:37:54 51°22.687 2°43.364 245.3 1 146 27.5
2011-07-27 06:37:58 51°22.686 2°43.365 244.1 0.9 149 27.4
2011-07-27 06:38:04 51°22.685 2°43.366 242.6 1 157 27.3
2011-07-27 06:38:09 51°22.683 2°43.367 240.6 1.1 160 27.8
2011-07-27 06:38:14 51°22.683 2°43.367 239.4 0.9 160 -999
2011-07-27 06:38:20 51°22.68 2°43.368 238.1 1.2 160 -999
2011-07-27 06:38:25 51°22.679 2°43.369 237.1 0.9 168 -999
2011-07-27 06:38:31 51°22.677 2°43.369 236.3 1.1 173 27.3
2011-07-27 06:38:36 51°22.676 2°43.369 235.7 0.9 182 -999
2011-07-27 06:38:41 51°22.675 2°43.369 235.8 1.1 176 27.9
2011-07-27 06:38:45 51°22.674 2°43.369 235.6 1 177 -999
2011-07-27 06:38:51 51°22.672 2°43.369 235.3 0.9 182 -999
2011-07-27 06:38:56 51°22.671 2°43.368 235.2 1 184 27.8
2011-07-27 06:39:01 51°22.67 2°43.368 234.7 1 192 -999
2011-07-27 06:39:06 51°22.668 2°43.367 234.4 1.3 201 27.7
2011-07-27 06:39:10 51°22.666 2°43.366 234.3 1.5 206 27.5
2011-07-27 06:39:15 51°22.664 2°43.365 234.7 1.6 209 27.3
2011-07-27 06:39:20 51°22.662 2°43.362 236.9 1.7 219 27.1
2011-07-27 06:39:25 51°22.66 2°43.36 239.6 2 215 26.6
2011-07-27 06:39:30 51°22.658 2°43.357 241.5 2.1 218 26.1
2011-07-27 06:39:35 51°22.655 2°43.354 244.7 2.2 216 24.7
2011-07-27 06:39:40 51°22.653 2°43.35 247.7 2.2 222 24.3
2011-07-27 06:39:45 51°22.651 2°43.347 250.6 2.3 226 25.3
2011-07-27 06:39:49 51°22.649 2°43.343 252.7 2.4 228 25.2
2011-07-27 06:39:54 51°22.647 2°43.339 255.4 2.4 232 24.3
2011-07-27 06:39:59 51°22.645 2°43.335 257.4 2.7 235 23.3
2011-07-27 06:40:04 51°22.643 2°43.329 259.7 2.8 241 23.6
2011-07-27 06:40:09 51°22.642 2°43.323 263.2 3 247 25.4
2011-07-27 06:40:13 51°22.641 2°43.317 268.2 3.2 251 25.6
2011-07-27 06:40:18 51°22.64 2°43.31 272.3 3.4 263 26.1
2011-07-27 06:40:23 51°22.639 2°43.302 278.2 3.5 266 26
2011-07-27 06:40:28 51°22.639 2°43.294 284.9 3.4 273 25.8
2011-07-27 06:40:33 51°22.64 2°43.287 291.2 3.5 275 24
2011-07-27 06:40:38 51°22.641 2°43.28 296.9 3.4 282 23.2
2011-07-27 06:40:43 51°22.642 2°43.272 302.7 3.4 287 24
2011-07-27 06:40:47 51°22.644 2°43.267 308.3 3.5 292 24.8
2011-07-27 06:40:53 51°22.647 2°43.259 314.6 3.3 302 24.6
2011-07-27 06:40:57 51°22.649 2°43.254 321.6 3.4 306 25.4
2011-07-27 06:41:03 51°22.653 2°43.248 326.7 3.3 316 25.7
2011-07-27 06:41:07 51°22.655 2°43.245 332.9 3.1 320 26
2011-07-27 06:41:13 51°22.659 2°43.241 339.4 2.8 330 26.1
2011-07-27 06:41:17 51°22.662 2°43.239 345.2 2.7 334 25.6
2011-07-27 06:41:23 51°22.666 2°43.236 350.4 2.6 337 25.5
2011-07-27 06:41:28 51°22.67 2°43.234 356.5 2.4 348 25.5
2011-07-27 06:41:33 51°22.673 2°43.234 1.7 2.4 353 25.1
2011-07-27 06:41:37 51°22.676 2°43.234 7.3 2.2 5 24.8
2011-07-27 06:41:43 51°22.679 2°43.235 13.2 2.2 8 24.6
2011-07-27 06:41:48 51°22.682 2°43.237 19.8 2.2 22 25
2011-07-27 06:41:53 51°22.685 2°43.239 25.4 2.2 27 24.4
2011-07-27 06:41:57 51°22.687 2°43.241 29.8 2.3 32 23.8
2011-07-27 06:42:03 51°22.69 2°43.245 33 2.4 38 24.7
2011-07-27 06:42:08 51°22.693 2°43.248 35.3 2.5 38 23.9
2011-07-27 06:42:13 51°22.696 2°43.253 37.1 2.7 43 25.4
2011-07-27 06:42:17 51°22.698 2°43.256 38 2.8 45 26.6
2011-07-27 06:42:23 51°22.702 2°43.261 38.5 2.9 42 26.7
2011-07-27 06:42:28 51°22.705 2°43.266 38.9 3 44 27.3
2011-07-27 06:42:33 51°22.708 2°43.27 38.3 3 42 27.3
2011-07-27 06:42:37 51°22.71 2°43.274 36.5 2.9 41 26.9
2011-07-27 06:42:42 51°22.713 2°43.277 33.7 2.7 39 27
2011-07-27 06:42:48 51°22.716 2°43.281 31 2.5 34 26.5
2011-07-27 06:42:53 51°22.719 2°43.284 28.2 2.4 36 25.8
2011-07-27 06:42:57 51°22.721 2°43.286 26.4 2 30 25.7
2011-07-27 06:43:02 51°22.723 2°43.289 25.4 1.9 36 25.2
2011-07-27 06:43:08 51°22.726 2°43.291 24.3 1.7 29 24.7
2011-07-27 06:43:13 51°22.727 2°43.293 23.8 1.4 36 25
2011-07-27 06:43:17 51°22.728 2°43.293 23.3 1 29 25.6
2011-07-27 06:43:22 51°22.729 2°43.295 23 0.9 47 25.6
2011-07-27 06:43:28 51°22.73 2°43.296 23.3 0.6 40 25.2
2011-07-27 06:43:33 51°22.73 2°43.297 24.4 0.5 91 25.1
2011-07-27 06:43:37 51°22.729 2°43.297 26.9 0.3 152 25.2
2011-07-27 06:43:43 51°22.729 2°43.297 28.7 0.3 159 24.7
2011-07-27 06:43:47 51°22.728 2°43.298 29.9 0.4 160 24.3
2011-07-27 06:43:53 51°22.728 2°43.298 31.5 0.5 162 24.4
2011-07-27 06:43:57 51°22.727 2°43.299 32.2 0.5 148 24.5
2011-07-27 06:44:03 51°22.727 2°43.3 32.6 0.5 125 24
2011-07-27 06:44:07 51°22.726 2°43.301 33.5 0.7 99 24.4
2011-07-27 06:44:13 51°22.726 2°43.303 35 0.8 95 24.9
2011-07-27 06:44:17 51°22.726 2°43.304 35.7 0.6 91 24.9
2011-07-27 06:44:23 51°22.726 2°43.305 37.1 0.7 104 24.7
2011-07-27 06:44:28 51°22.726 2°43.307 38.4 0.6 112 24.7
2011-07-27 06:44:33 51°22.725 2°43.308 38.6 0.7 123 24.5
2011-07-27 06:44:37 51°22.725 2°43.308 39.5 0.7 128 24.3
2011-07-27 06:44:42 51°22.724 2°43.309 40.2 0.6 131 23.9
2011-07-27 06:44:48 51°22.723 2°43.31 40.6 0.7 137 23.9
2011-07-27 06:44:53 51°22.723 2°43.311 40.6 0.5 129 24.2
2011-07-27 06:44:57 51°22.723 2°43.313 40.9 0.6 111 23.9
2011-07-27 06:45:03 51°22.722 2°43.315 41.2 0.9 96 25.1
2011-07-27 06:45:07 51°22.723 2°43.317 41.5 1 81 25.1
2011-07-27 06:45:13 51°22.723 2°43.32 42.3 1.2 73 25.7
2011-07-27 06:45:17 51°22.724 2°43.322 43.4 1.1 76 25.8
2011-07-27 06:45:23 51°22.724 2°43.324 43.6 0.9 89 26.4
2011-07-27 06:45:27 51°22.724 2°43.326 43.9 0.8 83 26.7
2011-07-27 06:45:33 51°22.724 2°43.328 44.1 0.8 99 26.9
2011-07-27 06:45:37 51°22.724 2°43.329 43.9 0.5 116 27
2011-07-27 06:45:43 51°22.723 2°43.33 43.6 0.7 129 27
2011-07-27 06:45:48 51°22.722 2°43.332 43.7 0.7 129 27.1
2011-07-27 06:45:53 51°22.722 2°43.333 43.3 0.9 135 27.3
2011-07-27 06:45:57 51°22.721 2°43.334 43.1 0.9 138 27.7
2011-07-27 06:46:03 51°22.72 2°43.336 43.9 0.9 144 27.7
2011-07-27 06:46:08 51°22.719 2°43.336 45.2 0.8 150 27.5
2011-07-27 06:46:13 51°22.718 2°43.337 46.3 0.8 154 27.3
2011-07-27 06:46:17 51°22.717 2°43.339 47.4 0.9 152 27.7
2011-07-27 06:46:23 51°22.716 2°43.34 48.6 0.9 148 28.5
2011-07-27 06:46:28 51°22.715 2°43.341 49.3 0.9 147 28.1
2011-07-27 06:46:33 51°22.714 2°43.342 50.2 1 147 27.9
2011-07-27 06:46:37 51°22.713 2°43.342 50.9 0.9 146 27.4
2011-07-27 06:46:42 51°22.712 2°43.344 51.7 1 128 27.3
2011-07-27 06:46:48 51°22.712 2°43.346 52.7 0.9 109 26.4
2011-07-27 06:46:53 51°22.711 2°43.348 53.2 1 115 25.1
2011-07-27 06:46:57 51°22.71 2°43.349 52.9 0.8 113 24.4
2011-07-27 06:47:02 51°22.71 2°43.351 52.8 1 122 24.7
2011-07-27 06:47:08 51°22.709 2°43.353 53 1 122 24.1
2011-07-27 06:47:13 51°22.708 2°43.355 52.4 0.9 126 24.9
2011-07-27 06:47:17 51°22.707 2°43.356 52.1 0.8 128 25.7
2011-07-27 06:47:22 51°22.706 2°43.357 52.4 0.9 132 25.2
2011-07-27 06:47:27 51°22.705 2°43.358 52.6 0.8 144 25.1
2011-07-27 06:47:33 51°22.704 2°43.359 53 0.8 146 26.2
2011-07-27 06:47:37 51°22.703 2°43.36 53.8 0.8 150 26.2
2011-07-27 06:47:42 51°22.703 2°43.361 53.9 0.7 145 26.7
2011-07-27 06:47:47 51°22.701 2°43.362 53.7 1 142 26.8
2011-07-27 06:47:53 51°22.701 2°43.363 53.1 0.8 141 26.9
2011-07-27 06:47:57 51°22.7 2°43.364 52.4 0.9 145 27
2011-07-27 06:48:02 51°22.699 2°43.365 52.4 0.8 148 27.4
2011-07-27 06:48:08 51°22.698 2°43.366 52.3 0.9 152 27.4
2011-07-27 06:48:13 51°22.697 2°43.367 52.2 0.9 155 28.2
2011-07-27 06:48:17 51°22.696 2°43.367 52.2 0.8 160 28.1
2011-07-27 06:48:22 51°22.695 2°43.368 52.6 0.7 160 28.1
2011-07-27 06:48:27 51°22.694 2°43.369 52.5 0.8 148 28.1
2011-07-27 06:48:33 51°22.692 2°43.37 52.3 1.1 152 28.5
2011-07-27 06:48:37 51°22.691 2°43.37 52.8 0.9 163 28.2
2011-07-27 06:48:42 51°22.69 2°43.371 53.7 1.1 160 28.5
2011-07-27 06:48:48 51°22.688 2°43.371 54.2 0.9 167 28.6
2011-07-27 06:48:53 51°22.687 2°43.372 54.6 1 165 28.5
2011-07-27 06:48:57 51°22.686 2°43.372 54.8 1 168 28.1
2011-07-27 06:49:03 51°22.685 2°43.373 55.2 1 166 27.9
2011-07-27 06:49:08 51°22.683 2°43.373 56.1 1.1 167 28.4
2011-07-27 06:49:13 51°22.682 2°43.374 56.7 1 172 28.4
2011-07-27 06:49:17 51°22.681 2°43.374 57.3 1.1 172 27.9
2011-07-27 06:49:22 51°22.679 2°43.374 58 0.9 178 27.9
2011-07-27 06:49:28 51°22.678 2°43.375 58.5 1 172 27.9
2011-07-27 06:49:33 51°22.676 2°43.375 58.8 1.1 167 28.1
2011-07-27 06:49:37 51°22.675 2°43.375 58.7 0.9 176 28
2011-07-27 06:49:42 51°22.674 2°43.376 58.6 1.1 173 28.1
2011-07-27 06:49:48 51°22.672 2°43.376 58.9 1.1 174 28.2
2011-07-27 06:49:53 51°22.67 2°43.376 59.4 1.2 173 28.4
2011-07-27 06:49:57 51°22.669 2°43.376 60 1.1 177 28.4
2011-07-27 06:50:02 51°22.668 2°43.376 60.8 1.2 178 28.1
2011-07-27 06:50:07 51°22.666 2°43.376 61.8 1.1 181 27.9
2011-07-27 06:50:13 51°22.664 2°43.376 62.5 0.9 186 27.7
2011-07-27 06:50:17 51°22.663 2°43.376 63.2 1.1 180 28.1